Time;durP1;ratioP1;P1;durP2;ratioP2;P2;SDS_P1;SDS_P2;PMS_P1;PMS_P2;Temp;Humidity;BMP_temperature;BMP_pressure;BME280_temperature;BME280_humidity;BME280_pressure;Samples;Min_cycle;Max_cycle;Signal;HPM_P1;HPM_P2
2022/04/05 00:00:39;;;;;;;8.00;6.40;;;;;;;6.42;53.55;98384.28;5088284;28;20041;-72
2022/04/05 00:03:13;;;;;;;8.52;4.50;;;;;;;6.31;53.35;98378.72;5088281;28;20052;-71
2022/04/05 00:05:47;;;;;;;7.25;5.45;;;;;;;6.15;54.40;98385.75;5070571;28;20066;-71
2022/04/05 00:08:20;;;;;;;6.47;5.40;;;;;;;6.03;55.05;98373.22;5088280;28;20049;-72
2022/04/05 00:10:53;;;;;;;8.98;7.22;;;;;;;6.00;54.79;98368.97;5088474;28;20049;-71
2022/04/05 00:13:25;;;;;;;10.10;6.70;;;;;;;5.86;55.66;98371.47;5088255;28;20040;-72
2022/04/05 00:15:58;;;;;;;9.38;6.47;;;;;;;5.80;56.00;98357.78;5070829;28;20045;-71
2022/04/05 00:18:31;;;;;;;8.55;5.95;;;;;;;5.71;56.75;98346.81;5088036;28;20067;-72
2022/04/05 00:21:03;;;;;;;7.57;5.75;;;;;;;5.68;56.15;98370.63;5070920;28;20052;-72
2022/04/05 00:23:36;;;;;;;6.82;5.07;;;;;;;5.65;55.83;98357.66;5088203;28;20279;-71
2022/04/05 00:26:08;;;;;;;6.55;5.60;;;;;;;5.64;56.36;98365.63;5087768;28;20041;-72
2022/04/05 00:28:40;;;;;;;7.95;5.40;;;;;;;5.64;55.72;98360.34;5087644;28;20045;-72
2022/04/05 00:31:13;;;;;;;8.75;6.43;;;;;;;4.84;56.64;98261.03;5087650;28;20305;-71
2022/04/05 00:33:46;;;;;;;6.88;5.97;;;;;;;5.59;57.09;98381.63;5087893;28;20044;-74
2022/04/05 00:36:18;;;;;;;8.00;4.80;;;;;;;5.58;57.19;98339.66;5087579;28;20044;-71
2022/04/05 00:38:51;;;;;;;6.78;6.03;;;;;;;5.50;58.47;98368.09;5087820;28;20094;-72
2022/04/05 00:41:23;;;;;;;8.60;5.40;;;;;;;5.42;58.68;98369.31;5087905;28;20041;-72
2022/04/05 00:43:55;;;;;;;6.07;5.00;;;;;;;5.37;58.73;98367.84;5087527;28;20094;-72
2022/04/05 00:46:27;;;;;;;7.40;5.85;;;;;;;5.29;58.64;98362.13;5087373;28;20044;-71
2022/04/05 00:49:03;;;;;;;7.03;5.90;;;;;;;5.31;59.84;98347.13;5087419;28;20097;-71
2022/04/05 00:51:35;;;;;;;6.47;5.57;;;;;;;5.25;60.08;98335.16;5087586;28;20086;-72
2022/04/05 00:54:10;;;;;;;7.85;6.32;;;;;;;5.24;61.02;98346.59;5087570;28;20040;-70
2022/04/05 00:56:45;;;;;;;8.50;5.63;;;;;;;5.24;59.96;98348.38;5070044;28;20095;-71
2022/04/05 00:59:18;;;;;;;;;;;;;;;5.18;62.16;98332.91;5087587;28;20141;-71
2022/04/05 01:01:52;;;;;;;7.28;5.55;;;;;;;4.92;59.93;98290.41;5069646;28;19923;-72
2022/04/05 01:04:28;;;;;;;6.93;5.50;;;;;;;5.17;60.31;98339.09;5086896;28;20056;-72
2022/04/05 01:07:05;;;;;;;7.65;6.03;;;;;;;5.11;61.08;98363.88;5086945;28;20041;-72
2022/04/05 01:09:37;;;;;;;6.38;5.35;;;;;;;4.80;61.84;98291.81;5086512;28;20041;-71
2022/04/05 01:12:07;;;;;;;8.80;5.55;;;;;;;5.06;60.68;98335.22;5087280;28;20046;-71
2022/04/05 01:14:36;;;;;;;8.40;5.15;;;;;;;5.04;61.48;98328.34;5086787;28;20146;-72
2022/04/05 01:17:07;;;;;;;7.72;5.55;;;;;;;5.05;61.32;98341.41;5087116;28;20044;-71
2022/04/05 01:19:38;;;;;;;12.35;5.97;;;;;;;5.01;62.19;98320.63;5087299;28;20035;-71
2022/04/05 01:22:07;;;;;;;7.63;5.90;;;;;;;4.63;63.41;98273.41;5086938;28;20049;-71
2022/04/05 01:24:38;;;;;;;6.82;5.18;;;;;;;4.92;61.39;98314.03;5087244;28;20107;-71
2022/04/05 01:27:07;;;;;;;7.35;5.82;;;;;;;4.90;63.06;98330.78;5086557;28;20051;-71
2022/04/05 01:29:37;;;;;;;6.25;5.18;;;;;;;4.87;62.70;98310.75;5086515;28;20047;-71
2022/04/05 01:32:09;;;;;;;7.72;5.47;;;;;;;4.82;61.87;98316.22;5086455;28;20090;-72
2022/04/05 01:34:40;;;;;;;7.65;6.57;;;;;;;4.04;62.91;98189.69;5086420;28;20051;-72
2022/04/05 01:37:12;;;;;;;9.48;6.78;;;;;;;4.81;64.66;98301.41;5086591;28;20032;-71
2022/04/05 01:39:43;;;;;;;9.73;5.55;;;;;;;4.52;63.68;98246.00;5085930;28;20056;-71
2022/04/05 01:42:17;;;;;;;7.25;5.20;;;;;;;4.75;64.15;98295.59;5086587;28;20040;-71
2022/04/05 01:44:45;;;;;;;7.70;5.75;;;;;;;4.75;64.55;98285.94;5069084;28;20291;-71
2022/04/05 01:47:16;;;;;;;8.07;5.30;;;;;;;4.33;63.19;98227.66;5086708;28;20208;-71
2022/04/05 01:49:48;;;;;;;7.35;5.40;;;;;;;4.84;62.11;98278.53;5086676;28;20090;-72
2022/04/05 01:52:21;;;;;;;7.80;5.50;;;;;;;4.87;61.74;98283.66;5087101;28;20040;-72
2022/04/05 01:54:54;;;;;;;9.05;6.03;;;;;;;4.83;62.95;98285.56;5086554;28;20041;-73
2022/04/05 01:57:26;;;;;;;7.88;6.85;;;;;;;4.81;62.74;98264.66;5086237;28;20109;-72
2022/04/05 01:59:58;;;;;;;7.15;5.85;;;;;;;3.99;62.71;98147.94;5086088;28;20108;-71
2022/04/05 02:02:31;;;;;;;7.40;5.50;;;;;;;4.86;62.26;98277.53;5086224;28;20048;-72
2022/04/05 02:05:03;;;;;;;8.88;5.82;;;;;;;4.14;62.34;98141.13;5085746;28;20308;-72
2022/04/05 02:07:35;;;;;;;8.10;5.80;;;;;;;4.86;62.02;98271.44;5086025;28;20174;-72
2022/04/05 02:10:09;;;;;;;7.05;5.50;;;;;;;4.86;63.41;98281.94;5086104;28;20036;-72
2022/04/05 02:12:41;;;;;;;8.03;6.73;;;;;;;4.63;62.58;98225.31;5086107;28;20395;-72
2022/04/05 02:15:15;;;;;;;7.93;5.50;;;;;;;4.86;62.23;98256.53;5085788;28;20223;-72
2022/04/05 02:17:49;;;;;;;7.80;5.18;;;;;;;4.84;63.05;98255.78;5085842;28;20044;-72
2022/04/05 02:20:21;;;;;;;7.18;5.88;;;;;;;4.88;61.79;98261.72;5068333;28;20128;-72
2022/04/05 02:22:53;;;;;;;7.07;5.22;;;;;;;4.87;62.53;98281.88;5085652;28;20059;-72
2022/04/05 02:25:27;;;;;;;6.50;5.32;;;;;;;4.89;62.72;98242.41;5085665;28;20058;-72
2022/04/05 02:27:59;;;;;;;8.10;6.30;;;;;;;4.89;62.22;98245.91;5085589;28;20040;-71
2022/04/05 02:30:31;;;;;;;6.68;4.95;;;;;;;4.93;61.66;98249.25;5085708;28;20044;-71
2022/04/05 02:33:04;;;;;;;6.32;5.13;;;;;;;4.94;61.44;98243.06;5086084;28;20044;-71
2022/04/05 02:35:37;;;;;;;5.80;5.00;;;;;;;4.97;61.32;98237.66;5085991;28;20292;-71
2022/04/05 02:38:10;;;;;;;7.25;5.68;;;;;;;3.81;61.22;98109.50;5069378;28;20360;-71
2022/04/05 02:40:44;;;;;;;6.80;5.28;;;;;;;5.03;61.88;98246.09;5086034;28;20285;-72
2022/04/05 02:43:16;;;;;;;5.93;4.47;;;;;;;5.05;61.36;98261.75;5085976;28;20048;-72
2022/04/05 02:45:48;;;;;;;6.10;5.10;;;;;;;5.04;61.90;98263.53;5085530;28;20041;-71
2022/04/05 02:48:21;;;;;;;5.68;4.65;;;;;;;5.07;61.29;98239.75;5085613;28;20235;-72
2022/04/05 02:50:53;;;;;;;6.97;5.82;;;;;;;5.07;61.72;98233.66;5068377;28;20045;-72
2022/04/05 02:53:27;;;;;;;7.18;4.88;;;;;;;5.10;61.50;98249.25;5068395;28;20063;-72
2022/04/05 02:56:00;;;;;;;7.45;5.78;;;;;;;5.12;61.26;98239.50;5085847;28;20064;-73
2022/04/05 02:58:34;;;;;;;6.32;5.13;;;;;;;5.14;60.98;98266.56;5068293;28;20050;-72
2022/04/05 03:01:09;;;;;;;6.78;4.90;;;;;;;5.20;59.87;98244.38;5085704;28;20087;-71
2022/04/05 03:03:41;;;;;;;7.32;5.25;;;;;;;5.17;61.48;98241.91;5068258;28;20045;-71
2022/04/05 03:06:14;;;;;;;7.22;5.68;;;;;;;5.21;60.61;98248.69;5064606;28;20363;-72
2022/04/05 03:08:47;;;;;;;6.38;5.50;;;;;;;5.21;61.17;98223.28;5065339;28;20045;-72
2022/04/05 03:11:21;;;;;;;10.85;6.00;;;;;;;5.24;61.11;98228.38;5064673;28;20041;-71
2022/04/05 03:13:54;;;;;;;6.20;4.25;;;;;;;5.28;60.68;98216.78;5065387;28;20053;-71
2022/04/05 03:16:26;;;;;;;7.55;5.63;;;;;;;5.28;60.41;98224.66;5065270;28;20040;-71
2022/04/05 03:18:58;;;;;;;6.80;5.03;;;;;;;4.98;60.91;98168.47;5065306;28;20098;-71
2022/04/05 03:21:33;;;;;;;6.30;5.25;;;;;;;5.26;60.61;98221.28;5064400;28;20047;-71
2022/04/05 03:24:06;;;;;;;7.35;4.55;;;;;;;5.26;60.38;98202.88;5065433;28;20049;-71
2022/04/05 03:26:40;;;;;;;5.15;4.10;;;;;;;5.31;60.22;98208.75;5065473;28;20063;-71
2022/04/05 03:29:12;;;;;;;5.70;4.80;;;;;;;5.32;60.33;98210.44;5064167;28;20067;-72
2022/04/05 03:31:44;;;;;;;6.22;4.22;;;;;;;5.34;60.08;98198.06;5064994;28;20090;-71
2022/04/05 03:34:16;;;;;;;6.30;4.97;;;;;;;5.08;59.74;98173.16;5068505;28;20093;-71
2022/04/05 03:36:49;;;;;;;7.82;4.90;;;;;;;5.10;60.17;98152.06;5067911;28;20330;-72
2022/04/05 03:39:22;;;;;;;6.28;4.47;;;;;;;5.10;60.08;98157.31;5068613;28;20095;-71
2022/04/05 03:41:56;;;;;;;6.20;4.30;;;;;;;5.09;60.00;98166.13;5068676;28;20293;-72
2022/04/05 03:44:30;;;;;;;5.60;4.20;;;;;;;5.42;59.35;98187.16;5068835;28;20347;-71
2022/04/05 03:47:02;;;;;;;6.43;5.05;;;;;;;5.44;59.20;98183.53;5067706;28;20301;-72
2022/04/05 03:49:35;;;;;;;5.55;4.25;;;;;;;5.45;59.68;98205.41;5068666;28;20090;-71
2022/04/05 03:52:07;;;;;;;6.13;5.28;;;;;;;5.46;59.60;98172.94;5067647;28;20041;-71
2022/04/05 03:54:40;;;;;;;5.80;4.10;;;;;;;5.52;59.21;98190.16;5068594;28;20045;-72
2022/04/05 03:57:14;;;;;;;5.82;4.18;;;;;;;5.55;59.13;98188.22;5068479;28;20045;-71
2022/04/05 03:59:43;;;;;;;5.28;4.28;;;;;;;5.57;59.03;98180.25;5068470;28;20037;-71
2022/04/05 04:02:12;;;;;;;6.90;4.15;;;;;;;4.45;58.13;97986.56;5068150;28;20041;-72
2022/04/05 04:04:44;;;;;;;6.13;4.85;;;;;;;5.60;59.00;98180.09;5070798;28;20061;-72
2022/04/05 04:07:13;;;;;;;6.97;5.05;;;;;;;5.61;59.00;98184.41;5088129;28;20231;-71
2022/04/05 04:09:44;;;;;;;5.05;4.03;;;;;;;5.63;58.32;98187.81;5088252;28;20091;-72
2022/04/05 04:12:14;;;;;;;6.03;4.25;;;;;;;5.65;58.68;98186.78;5087968;28;20036;-71
2022/04/05 04:14:43;;;;;;;6.28;4.90;;;;;;;5.69;58.44;98172.56;5088507;28;20029;-72
2022/04/05 04:17:13;;;;;;;5.82;4.57;;;;;;;5.70;58.23;98182.13;5088241;28;20086;-71
2022/04/05 04:19:44;;;;;;;5.78;3.60;;;;;;;5.72;58.30;98171.53;5087929;28;20045;-71
2022/04/05 04:22:13;;;;;;;6.20;4.63;;;;;;;5.45;58.20;98151.06;5088099;28;20032;-72
2022/04/05 04:24:45;;;;;;;4.82;3.65;;;;;;;5.47;58.61;98127.34;5087984;28;20053;-71
2022/04/05 04:27:15;;;;;;;6.22;4.38;;;;;;;5.76;58.52;98146.78;5088013;28;20063;-71
2022/04/05 04:29:44;;;;;;;6.10;4.20;;;;;;;5.48;58.25;98143.94;5087855;28;20046;-71
2022/04/05 04:32:14;;;;;;;5.05;3.75;;;;;;;5.76;58.47;98141.53;5087903;28;20064;-72
2022/04/05 04:34:44;;;;;;;6.22;5.40;;;;;;;5.78;58.42;98155.44;5088056;28;20041;-71
2022/04/05 04:37:15;;;;;;;5.60;4.40;;;;;;;5.51;58.07;98115.72;5087820;28;20089;-71
2022/04/05 04:39:44;;;;;;;5.97;3.97;;;;;;;5.83;58.09;98181.47;5087487;28;20048;-71
2022/04/05 04:42:16;;;;;;;6.22;4.72;;;;;;;5.54;58.44;98114.72;5087387;28;20036;-72
2022/04/05 04:44:45;;;;;;;7.82;4.90;;;;;;;5.86;58.00;98182.16;5086356;28;20040;-71
2022/04/05 04:47:15;;;;;;;6.50;4.47;;;;;;;5.90;58.23;98177.56;5087270;28;20182;-71
2022/04/05 04:49:45;;;;;;;5.60;4.13;;;;;;;5.91;58.43;98181.91;5070266;28;20231;-71
2022/04/05 04:52:15;;;;;;;5.80;4.10;;;;;;;5.92;58.16;98194.97;5087501;28;20192;-71
2022/04/05 04:54:45;;;;;;;6.45;4.85;;;;;;;5.93;58.40;98182.66;5070078;28;20319;-71
2022/04/05 04:57:17;;;;;;;5.28;3.50;;;;;;;5.95;58.58;98170.28;5086976;28;20040;-71
2022/04/05 04:59:46;;;;;;;6.00;4.32;;;;;;;5.11;58.04;98096.00;5087228;28;20045;-71
2022/04/05 05:02:16;;;;;;;7.28;4.53;;;;;;;5.98;58.20;98206.94;5086900;28;20041;-71
2022/04/05 05:04:46;;;;;;;7.43;3.75;;;;;;;6.00;58.19;98207.69;5086863;28;20060;-71
2022/04/05 05:07:16;;;;;;;5.88;4.32;;;;;;;6.03;57.71;98213.63;5087167;28;20044;-72
2022/04/05 05:09:46;;;;;;;5.70;3.97;;;;;;;5.80;57.33;98152.72;5087023;28;20064;-71
2022/04/05 05:12:21;;;;;;;5.88;3.38;;;;;;;6.06;58.06;98191.56;5087406;28;20048;-71
2022/04/05 05:14:51;;;;;;;4.78;3.50;;;;;;;6.06;58.00;98202.09;5087017;28;20104;-71
2022/04/05 05:17:22;;;;;;;5.38;4.00;;;;;;;6.08;57.76;98211.59;5086774;28;20042;-71
2022/04/05 05:19:51;;;;;;;5.88;4.95;;;;;;;6.08;57.60;98202.88;5087191;28;20094;-71
2022/04/05 05:22:22;;;;;;;5.43;4.50;;;;;;;6.09;57.59;98183.50;5086636;28;20040;-71
2022/04/05 05:24:52;;;;;;;7.10;4.13;;;;;;;6.11;57.56;98200.06;5086746;28;20037;-72
2022/04/05 05:27:23;;;;;;;5.72;4.47;;;;;;;6.12;57.64;98187.75;5086748;28;20044;-72
2022/04/05 05:29:52;;;;;;;5.88;4.20;;;;;;;5.91;57.80;98145.94;5086480;28;20051;-71
2022/04/05 05:32:22;;;;;;;6.47;4.53;;;;;;;6.14;57.68;98188.53;5069170;28;20036;-71
2022/04/05 05:34:52;;;;;;;5.82;4.13;;;;;;;6.18;57.67;98201.41;5086673;28;20040;-72
2022/04/05 05:37:23;;;;;;;4.47;3.92;;;;;;;6.19;57.72;98210.16;5086299;28;20082;-71
2022/04/05 05:39:52;;;;;;;5.25;3.92;;;;;;;5.39;57.45;98085.72;5086436;28;20045;-71
2022/04/05 05:42:24;;;;;;;5.88;4.20;;;;;;;6.00;57.62;98162.97;5086292;28;20173;-71
2022/04/05 05:44:53;;;;;;;6.10;3.90;;;;;;;6.24;57.65;98208.97;5086438;28;20288;-71
2022/04/05 05:47:24;;;;;;;6.93;4.20;;;;;;;6.24;57.43;98224.75;5086295;28;20327;-71
2022/04/05 05:49:53;;;;;;;6.93;5.22;;;;;;;6.26;57.75;98214.16;5052469;28;20044;-72
2022/04/05 05:52:23;;;;;;;7.47;4.45;;;;;;;5.93;57.29;98165.09;5052417;28;20047;-71
2022/04/05 05:54:53;;;;;;;5.97;4.80;;;;;;;6.29;57.68;98213.97;5086179;28;20043;-72
2022/04/05 05:57:25;;;;;;;5.32;4.50;;;;;;;6.32;57.38;98246.22;5086432;28;20111;-70
2022/04/05 05:59:54;;;;;;;5.10;4.00;;;;;;;6.01;57.67;98188.34;5091248;28;20067;-70
2022/04/05 06:02:24;;;;;;;7.00;4.18;;;;;;;6.34;57.42;98219.84;5086258;28;20043;-72
2022/04/05 06:04:54;;;;;;;6.57;5.03;;;;;;;6.35;57.88;98232.91;5086171;28;20060;-71
2022/04/05 06:07:24;;;;;;;5.72;4.68;;;;;;;6.36;58.09;98233.75;5086563;28;20036;-71
2022/04/05 06:09:55;;;;;;;5.65;3.88;;;;;;;6.27;58.21;98250.91;5085821;28;20040;-72
2022/04/05 06:12:26;;;;;;;6.00;4.68;;;;;;;5.80;58.88;98161.44;5086600;28;20040;-71
2022/04/05 06:14:54;;;;;;;6.18;5.25;;;;;;;6.29;59.48;98266.59;5087210;28;20029;-71
2022/04/05 06:17:25;;;;;;;6.57;5.00;;;;;;;6.25;59.73;98262.44;5069389;28;20103;-71
2022/04/05 06:19:55;;;;;;;5.55;4.50;;;;;;;6.26;59.28;98256.25;5086474;28;20041;-71
2022/04/05 06:22:25;;;;;;;5.90;4.70;;;;;;;6.24;59.63;98276.53;5086776;28;20041;-71
2022/04/05 06:24:55;;;;;;;6.40;4.43;;;;;;;6.22;59.94;98254.72;5086202;28;20040;-71
2022/04/05 06:27:26;;;;;;;8.70;4.97;;;;;;;6.21;59.63;98261.75;5086007;28;20041;-71
2022/04/05 06:29:55;;;;;;;6.40;4.95;;;;;;;6.22;59.72;98260.81;5085707;28;20028;-71
2022/04/05 06:32:25;;;;;;;6.45;4.70;;;;;;;6.22;59.72;98275.75;5085865;28;20040;-72
2022/04/05 06:34:55;;;;;;;8.60;5.15;;;;;;;6.23;60.14;98274.81;5085845;28;20028;-72
2022/04/05 06:37:25;;;;;;;5.28;4.70;;;;;;;6.25;59.72;98262.44;5085897;28;20041;-72
2022/04/05 06:39:56;;;;;;;6.28;4.50;;;;;;;6.25;59.49;98251.91;5086085;28;20038;-72
2022/04/05 06:42:27;;;;;;;6.53;5.05;;;;;;;6.25;60.29;98239.59;5068133;28;20081;-72
2022/04/05 06:44:56;;;;;;;5.40;4.32;;;;;;;5.65;59.53;98157.03;5085473;28;20043;-72
2022/04/05 06:47:26;;;;;;;7.32;4.68;;;;;;;6.29;59.90;98263.97;5085806;28;20044;-71
2022/04/05 06:49:56;;;;;;;5.95;4.28;;;;;;;6.29;60.50;98235.88;5085427;28;20037;-71
2022/04/05 06:52:26;;;;;;;6.72;4.97;;;;;;;6.31;60.34;98247.16;5068670;28;20044;-71
2022/04/05 06:54:56;;;;;;;7.43;5.22;;;;;;;6.27;60.66;98264.06;5085256;28;20107;-71
2022/04/05 06:57:28;;;;;;;6.97;4.07;;;;;;;6.27;60.57;98266.69;5085431;28;20110;-71
2022/04/05 06:59:57;;;;;;;6.13;4.10;;;;;;;6.30;60.93;98249.88;5085471;28;20049;-71
2022/04/05 07:02:27;;;;;;;5.63;4.35;;;;;;;6.32;60.47;98248.88;5085348;28;20040;-71
2022/04/05 07:04:57;;;;;;;7.93;5.07;;;;;;;6.33;61.08;98287.41;5084993;28;20070;-71
2022/04/05 07:07:27;;;;;;;5.70;4.40;;;;;;;6.29;60.92;98258.72;5086036;28;20044;-71
2022/04/05 07:09:57;;;;;;;6.53;4.25;;;;;;;6.03;61.32;98212.78;5089503;28;20040;-71
2022/04/05 07:12:29;;;;;;;6.82;5.13;;;;;;;6.29;61.94;98272.72;5089290;28;20181;-72
2022/04/05 07:14:58;;;;;;;6.22;5.07;;;;;;;6.30;61.58;98258.63;5089440;28;20083;-72
2022/04/05 07:17:28;;;;;;;5.55;4.18;;;;;;;6.14;61.10;98246.41;5089703;28;20105;-71
2022/04/05 07:19:58;;;;;;;5.90;4.78;;;;;;;6.33;61.49;98271.59;5089180;28;20093;-71
2022/04/05 07:22:28;;;;;;;5.97;4.07;;;;;;;6.35;61.45;98268.91;5089404;28;20046;-71
2022/04/05 07:24:58;;;;;;;5.70;4.03;;;;;;;6.38;61.32;98268.72;5089338;28;20099;-71
2022/04/05 07:27:30;;;;;;;5.40;3.85;;;;;;;6.38;61.30;98276.63;5089346;28;20035;-71
2022/04/05 07:29:58;;;;;;;6.13;4.05;;;;;;;6.36;62.06;98283.75;5088628;28;20040;-72
2022/04/05 07:32:28;;;;;;;5.07;4.03;;;;;;;6.39;61.80;98286.22;5089150;28;20051;-72
2022/04/05 07:34:58;;;;;;;7.00;4.72;;;;;;;6.38;61.97;98277.47;5088890;28;20064;-71
2022/04/05 07:37:30;;;;;;;6.18;3.90;;;;;;;6.36;62.43;98268.81;5088777;28;20024;-72
2022/04/05 07:39:59;;;;;;;5.95;3.92;;;;;;;6.35;62.66;98297.84;5088635;28;20044;-72
2022/04/05 07:42:30;;;;;;;5.72;4.30;;;;;;;6.33;63.19;98271.59;5088771;28;20044;-72
2022/04/05 07:44:59;;;;;;;6.45;4.18;;;;;;;6.31;63.31;98305.06;5088371;28;20041;-72
2022/04/05 07:47:29;;;;;;;5.85;4.90;;;;;;;6.30;64.04;98313.03;5070855;28;20108;-72
2022/04/05 07:49:59;;;;;;;5.25;4.13;;;;;;;6.28;63.82;98296.47;5070650;28;20040;-72
2022/04/05 07:52:29;;;;;;;5.88;3.85;;;;;;;6.30;63.57;98305.13;5088342;28;20048;-72
2022/04/05 07:55:00;;;;;;;5.97;4.70;;;;;;;6.25;64.69;98318.53;5070965;28;20047;-71
2022/04/05 07:57:31;;;;;;;5.18;3.30;;;;;;;6.23;64.15;98309.88;5088046;28;20041;-71
2022/04/05 08:00:00;;;;;;;5.07;3.53;;;;;;;6.25;63.75;98315.06;5088202;28;20055;-71
2022/04/05 08:02:30;;;;;;;4.97;4.15;;;;;;;5.16;64.53;98154.38;5070469;28;20249;-71
2022/04/05 08:05:00;;;;;;;5.18;3.55;;;;;;;6.23;64.19;98317.78;5088039;28;20119;-71
2022/04/05 08:07:30;;;;;;;4.75;3.55;;;;;;;6.22;64.21;98329.22;5088302;28;20035;-71
2022/04/05 08:10:00;;;;;;;5.05;3.63;;;;;;;6.27;64.23;98327.19;5087672;28;20047;-71
2022/04/05 08:12:39;;;;;;;5.80;3.95;;;;;;;6.27;65.82;98321.09;5088085;28;20036;-71
2022/04/05 08:15:11;;;;;;;5.43;3.97;;;;;;;5.53;64.44;98207.63;5088032;28;20044;-71
2022/04/05 08:17:44;;;;;;;5.20;4.05;;;;;;;6.31;64.21;98320.00;5087761;28;20044;-70
2022/04/05 08:20:16;;;;;;;5.80;5.13;;;;;;;6.30;64.37;98332.31;5086215;28;20044;-71
2022/04/05 08:22:49;;;;;;;5.22;4.03;;;;;;;6.33;63.40;98326.88;5087414;28;20193;-71
2022/04/05 08:25:21;;;;;;;5.53;3.95;;;;;;;6.37;63.69;98309.13;5087535;28;20239;-71
2022/04/05 08:27:54;;;;;;;4.80;3.60;;;;;;;6.38;63.80;98326.63;5087531;28;20348;-71
2022/04/05 08:30:27;;;;;;;5.38;4.13;;;;;;;6.42;63.68;98309.72;5087434;28;20327;-71
2022/04/05 08:32:59;;;;;;;4.68;3.78;;;;;;;6.43;63.73;98333.34;5087540;28;20044;-71
2022/04/05 08:35:31;;;;;;;5.05;3.45;;;;;;;6.46;63.43;98320.94;5087468;28;20098;-70
2022/04/05 08:38:04;;;;;;;4.13;3.33;;;;;;;6.53;62.53;98341.56;5087333;28;20110;-71
2022/04/05 08:40:36;;;;;;;5.45;4.25;;;;;;;6.57;62.98;98337.00;5087250;28;20304;-71
2022/04/05 08:43:09;;;;;;;4.90;3.70;;;;;;;6.62;62.56;98341.06;5070835;28;20044;-71
2022/04/05 08:45:43;;;;;;;4.22;3.38;;;;;;;6.67;62.21;98339.03;5069997;28;20045;-71
2022/04/05 08:48:15;;;;;;;4.35;3.33;;;;;;;6.74;62.09;98339.53;5087179;28;20082;-71
2022/04/05 08:50:47;;;;;;;4.75;3.20;;;;;;;6.81;61.87;98345.34;5087311;28;20044;-71
2022/04/05 08:53:20;;;;;;;4.47;3.20;;;;;;;6.88;61.71;98354.59;5087085;28;20082;-71
2022/04/05 08:55:53;;;;;;;5.13;4.07;;;;;;;6.86;61.88;98340.69;5087319;28;20048;-71
2022/04/05 08:58:26;;;;;;;5.70;3.72;;;;;;;6.89;61.25;98349.25;5069997;28;20086;-71
2022/04/05 09:00:58;;;;;;;3.72;2.83;;;;;;;6.90;61.47;98361.50;5086922;28;20066;-71
2022/04/05 09:03:32;;;;;;;4.00;3.22;;;;;;;6.89;61.66;98362.44;5086913;28;20048;-71
2022/04/05 09:06:24;;;;;;;3.60;2.83;;;;;;;6.89;61.55;98349.25;5086709;28;20044;-71
2022/04/05 09:09:07;;;;;;;4.10;2.90;;;;;;;6.91;61.64;98339.47;5086791;28;20379;-71
2022/04/05 09:11:44;;;;;;;3.95;2.78;;;;;;;6.95;61.37;98355.97;5087026;28;20173;-71
2022/04/05 09:14:24;;;;;;;3.88;2.85;;;;;;;7.02;61.25;98347.63;5086715;28;20040;-71
2022/04/05 09:17:07;;;;;;;4.18;3.00;;;;;;;6.88;61.31;98313.31;5086935;28;20048;-71
2022/04/05 09:19:45;;;;;;;3.88;2.83;;;;;;;7.17;60.50;98356.44;5069232;28;20086;-70
2022/04/05 09:22:32;;;;;;;4.40;3.47;;;;;;;7.29;61.06;98334.66;5086751;28;20362;-71
2022/04/05 09:25:05;;;;;;;3.92;3.25;;;;;;;7.42;60.08;98324.28;5087059;28;20036;-70
2022/04/05 09:27:44;;;;;;;4.53;3.33;;;;;;;7.24;60.65;98259.44;5086916;28;20060;-70
2022/04/05 09:30:20;;;;;;;4.97;3.40;;;;;;;7.78;60.12;98315.97;5086072;28;20110;-71
2022/04/05 09:32:52;;;;;;;4.32;3.25;;;;;;;7.91;59.44;98330.13;5086339;28;20040;-71
2022/04/05 09:35:30;;;;;;;3.45;2.67;;;;;;;7.99;59.12;98313.81;5086614;28;20040;-71
2022/04/05 09:38:11;;;;;;;4.45;2.95;;;;;;;8.04;58.66;98309.09;5086385;28;20086;-71
2022/04/05 09:40:43;;;;;;;4.75;2.50;;;;;;;8.12;58.66;98329.75;5086110;28;20044;-71
2022/04/05 09:43:16;;;;;;;3.92;2.65;;;;;;;8.19;58.26;98326.63;5086116;28;20040;-71
2022/04/05 09:45:51;;;;;;;3.22;2.40;;;;;;;8.03;58.16;98276.59;5086181;28;20242;-71
2022/04/05 09:48:25;;;;;;;3.80;2.60;;;;;;;8.55;57.76;98326.13;5068425;28;20044;-71
2022/04/05 09:51:08;;;;;;;3.37;2.40;;;;;;;8.85;56.88;98348.91;5068644;28;20070;-71
2022/04/05 09:53:47;;;;;;;4.72;2.45;;;;;;;8.97;56.28;98329.63;5086144;28;20045;-71
2022/04/05 09:56:22;;;;;;;3.78;2.70;;;;;;;9.06;55.83;98339.59;5068258;28;20135;-71
2022/04/05 09:58:55;;;;;;;3.03;2.15;;;;;;;9.04;55.99;98330.06;5086013;28;20094;-71
2022/04/05 10:01:30;;;;;;;3.20;2.42;;;;;;;9.06;56.12;98326.38;5085992;28;20044;-71
2022/04/05 10:04:05;;;;;;;2.97;2.05;;;;;;;8.56;56.42;98271.53;5085755;28;20048;-71
2022/04/05 10:06:42;;;;;;;3.80;2.30;;;;;;;9.00;56.11;98318.84;5065658;28;20041;-71
2022/04/05 10:09:16;;;;;;;3.42;2.47;;;;;;;9.00;56.00;98324.97;5065717;28;20041;-71
2022/04/05 10:11:48;;;;;;;3.38;2.53;;;;;;;9.04;56.00;98324.78;5065655;28;20041;-70
2022/04/05 10:14:21;;;;;;;3.08;2.10;;;;;;;8.91;55.87;98317.66;5047923;28;20044;-71
2022/04/05 10:16:56;;;;;;;3.42;1.90;;;;;;;9.21;55.29;98367.69;5065392;28;20040;-71
2022/04/05 10:19:29;;;;;;;3.00;2.25;;;;;;;9.31;55.49;98341.50;5064624;28;20040;-71
2022/04/05 10:22:02;;;;;;;4.38;2.33;;;;;;;9.24;54.79;98280.25;5064991;28;20044;-71
2022/04/05 10:24:34;;;;;;;2.92;2.28;;;;;;;9.75;54.59;98332.44;5065249;28;20049;-71
2022/04/05 10:27:08;;;;;;;3.10;1.95;;;;;;;9.90;54.06;98337.53;5064646;28;20091;-71
2022/04/05 10:29:42;;;;;;;2.95;2.20;;;;;;;9.83;53.75;98296.56;5065429;28;20041;-71
2022/04/05 10:32:25;;;;;;;4.35;2.03;;;;;;;10.16;53.55;98356.91;5064891;28;20044;-71
2022/04/05 10:35:03;;;;;;;2.70;2.08;;;;;;;10.15;53.22;98339.31;5064865;28;20052;-71
2022/04/05 10:37:35;;;;;;;4.07;2.20;;;;;;;9.96;53.41;98296.56;5065267;28;20197;-71
2022/04/05 10:40:19;;;;;;;2.85;1.90;;;;;;;10.06;53.20;98341.75;5064850;28;20268;-71
2022/04/05 10:42:53;;;;;;;3.75;2.58;;;;;;;9.92;53.76;98346.19;5064538;28;20285;-71
2022/04/05 10:45:29;;;;;;;3.45;2.15;;;;;;;9.91;53.95;98360.38;5065303;28;20098;-71
2022/04/05 10:48:16;;;;;;;2.83;1.88;;;;;;;9.84;53.69;98351.16;5047884;28;20042;-71
2022/04/05 10:51:09;;;;;;;3.85;2.65;;;;;;;9.85;54.04;98357.31;5065037;28;20232;-71
2022/04/05 10:54:17;;;;;;;2.40;1.70;;;;;;;9.78;54.29;98346.28;5065371;28;20037;-71
2022/04/05 10:56:37;;;;;;;2.85;2.00;;;;;;;9.68;54.28;98350.50;5064939;28;20046;-71
2022/04/05 10:59:18;;;;;;;3.00;2.20;;;;;;;9.66;54.12;98373.56;5064316;28;20367;-71
2022/04/05 11:01:50;;;;;;;2.95;1.90;;;;;;;9.62;54.38;98366.78;5064831;28;20049;-71
2022/04/05 11:04:37;;;;;;;3.97;2.10;;;;;;;9.59;54.30;98373.13;5067051;28;20037;-72
2022/04/05 11:07:21;;;;;;;3.40;2.08;;;;;;;9.67;54.70;98358.56;5085152;28;20086;-71
2022/04/05 11:09:55;;;;;;;2.83;1.92;;;;;;;9.67;54.55;98382.38;5084978;28;20040;-71
2022/04/05 11:12:30;;;;;;;2.92;2.05;;;;;;;9.61;54.95;98400.34;5084571;28;20049;-71
2022/04/05 11:14:59;;;;;;;4.15;2.38;;;;;;;9.52;55.33;98358.63;5084384;28;20075;-71
2022/04/05 11:17:29;;;;;;;4.15;2.45;;;;;;;9.54;55.52;98366.47;5085311;28;20025;-71
2022/04/05 11:20:01;;;;;;;3.47;2.35;;;;;;;9.18;55.51;98324.72;5084826;28;20063;-72
2022/04/05 11:22:34;;;;;;;3.58;2.42;;;;;;;9.42;56.00;98361.97;5067408;28;20086;-72
2022/04/05 11:25:06;;;;;;;7.00;2.30;;;;;;;3.99;55.73;97719.81;5067615;28;20144;-72
2022/04/05 11:27:45;;;;;;;3.78;2.22;;;;;;;9.41;56.20;98370.88;5084834;28;20040;-72
2022/04/05 11:30:40;;;;;;;6.43;2.70;;;;;;;9.24;57.14;98372.78;5067759;28;20072;-72
2022/04/05 11:33:45;;;;;;;7.90;2.60;;;;;;;9.22;58.43;98377.31;5085031;28;20185;-72
2022/04/05 11:36:21;;;;;;;3.60;2.63;;;;;;;9.17;58.91;98365.31;5082490;28;20106;-72
2022/04/05 11:38:58;;;;;;;3.80;2.60;;;;;;;9.17;59.30;98379.38;5085116;28;20048;-72
2022/04/05 11:41:32;;;;;;;3.50;2.55;;;;;;;9.09;59.71;98371.09;5084734;28;20036;-72
2022/04/05 11:44:06;;;;;;;2.97;1.92;;;;;;;9.01;59.66;98394.53;5084783;28;20040;-72
2022/04/05 11:46:38;;;;;;;3.13;2.17;;;;;;;8.18;60.35;98261.59;5067218;28;20043;-72
2022/04/05 11:49:13;;;;;;;3.47;2.50;;;;;;;8.99;60.27;98368.22;5084932;28;20051;-72
2022/04/05 11:51:49;;;;;;;4.13;3.08;;;;;;;8.95;60.41;98381.72;5084744;28;20284;-71
2022/04/05 11:54:24;;;;;;;3.67;2.60;;;;;;;8.93;61.06;98375.69;5086897;28;20235;-71
2022/04/05 11:57:04;;;;;;;3.65;2.60;;;;;;;8.96;61.20;98368.41;5088380;28;20040;-72
2022/04/05 11:59:36;;;;;;;4.47;2.33;;;;;;;9.02;60.39;98363.69;5088432;28;20041;-71
2022/04/05 12:02:08;;;;;;;3.63;2.70;;;;;;;9.06;61.34;98375.75;5070639;28;20248;-71
2022/04/05 12:04:40;;;;;;;3.95;2.83;;;;;;;9.14;59.99;98365.53;5087858;28;20243;-72
2022/04/05 12:07:14;;;;;;;3.95;2.75;;;;;;;9.21;60.01;98378.28;5088081;28;20086;-71